Time;durP1;ratioP1;P1;durP2;ratioP2;P2;SDS_P1;SDS_P2;PMS_P1;PMS_P2;Temp;Humidity;BMP_temperature;BMP_pressure;BME280_temperature;BME280_humidity;BME280_pressure;Samples;Min_cycle;Max_cycle;Signal;HPM_P1;HPM_P2
2021/10/19 00:00:17;;;;;;;12.98;7.57;;;14.70;89.40;;;;;;5076775;28;20414;-79
2021/10/19 00:02:43;;;;;;;14.25;8.95;;;14.70;89.50;;;;;;5058602;28;20066;-78
2021/10/19 00:05:11;;;;;;;14.95;8.02;;;14.70;89.50;;;;;;5076287;28;20098;-79
2021/10/19 00:07:38;;;;;;;11.30;7.32;;;14.70;89.70;;;;;;5075521;28;20039;-78
2021/10/19 00:10:04;;;;;;;10.77;7.03;;;14.70;89.70;;;;;;5075218;28;20033;-78
2021/10/19 00:12:30;;;;;;;12.18;7.22;;;14.70;89.70;;;;;;5074743;28;20045;-79
2021/10/19 00:14:56;;;;;;;11.35;7.60;;;14.70;89.90;;;;;;5076324;28;20090;-78
2021/10/19 00:17:21;;;;;;;11.52;7.40;;;14.70;89.80;;;;;;5058263;28;20082;-77
2021/10/19 00:19:47;;;;;;;12.98;8.50;;;14.80;89.90;;;;;;5058144;28;20082;-78
2021/10/19 00:22:14;;;;;;;12.18;6.72;;;14.70;89.80;;;;;;5041518;28;20029;-78
2021/10/19 00:24:39;;;;;;;12.23;7.90;;;14.70;89.90;;;;;;5041827;28;20024;-78
2021/10/19 00:27:05;;;;;;;10.27;6.80;;;14.70;90.00;;;;;;5074762;28;20086;-78
2021/10/19 00:29:32;;;;;;;11.73;7.72;;;14.70;90.00;;;;;;5076418;28;20185;-81
2021/10/19 00:31:58;;;;;;;11.02;6.78;;;14.70;90.10;;;;;;5058173;28;20039;-79
2021/10/19 00:34:23;;;;;;;9.90;6.68;;;14.70;90.10;;;;;;5076015;28;20032;-80
2021/10/19 00:36:49;;;;;;;12.20;8.02;;;14.70;90.20;;;;;;5074627;28;20032;-80
2021/10/19 00:39:15;;;;;;;11.25;7.05;;;14.80;90.20;;;;;;5041257;28;20071;-79
2021/10/19 00:41:41;;;;;;;12.00;7.70;;;14.70;90.30;;;;;;5074542;28;20036;-78
2021/10/19 00:44:07;;;;;;;12.77;8.15;;;14.70;90.60;;;;;;5074631;28;20498;-79
2021/10/19 00:46:33;;;;;;;13.65;7.53;;;14.70;90.50;;;;;;5075635;28;20054;-79
2021/10/19 00:48:59;;;;;;;12.32;7.85;;;14.70;90.40;;;;;;5074428;28;20063;-79
2021/10/19 00:51:25;;;;;;;12.98;7.47;;;14.60;90.50;;;;;;5074468;28;20116;-79
2021/10/19 00:53:50;;;;;;;14.10;8.00;;;14.60;90.50;;;;;;5074271;28;20033;-79
2021/10/19 00:56:16;;;;;;;10.63;7.20;;;14.70;90.70;;;;;;5057593;28;20037;-82
2021/10/19 00:58:42;;;;;;;12.48;8.25;;;14.60;90.70;;;;;;5075271;28;20443;-78
2021/10/19 01:01:09;;;;;;;12.38;7.82;;;14.60;90.70;;;;;;5075321;28;20444;-78
2021/10/19 01:03:35;;;;;;;11.48;7.32;;;14.60;90.80;;;;;;5073917;28;20020;-79
2021/10/19 01:06:03;;;;;;;11.65;7.28;;;14.60;90.80;;;;;;5074108;28;20058;-78
2021/10/19 01:08:29;;;;;;;11.48;7.55;;;14.60;90.80;;;;;;5074470;28;20028;-78
2021/10/19 01:10:55;;;;;;;13.20;7.95;;;14.60;90.90;;;;;;5074206;28;20494;-78
2021/10/19 01:13:21;;;;;;;13.23;8.02;;;14.60;91.00;;;;;;5075146;28;20573;-78
2021/10/19 01:15:47;;;;;;;14.25;7.72;;;14.60;91.00;;;;;;5075507;28;20148;-78
2021/10/19 01:18:15;;;;;;;12.20;7.15;;;14.60;91.00;;;;;;5073696;28;20499;-83
2021/10/19 01:20:41;;;;;;;12.35;8.27;;;14.50;91.10;;;;;;5057349;28;20024;-79
2021/10/19 01:23:08;;;;;;;10.65;6.78;;;14.50;91.10;;;;;;5073668;28;20464;-77
2021/10/19 01:25:35;;;;;;;11.73;8.32;;;14.60;91.20;;;;;;5074166;28;20032;-79
2021/10/19 01:28:09;;;;;;;10.00;7.30;;;14.50;91.20;;;;;;5073619;28;20123;-79
2021/10/19 01:30:44;;;;;;;11.38;7.60;;;14.50;91.30;;;;;;5073488;28;20017;-78
2021/10/19 01:33:10;;;;;;;12.30;8.52;;;14.50;91.30;;;;;;5074027;28;20029;-79
2021/10/19 01:35:38;;;;;;;12.00;7.43;;;14.50;91.40;;;;;;5074668;28;20032;-78
2021/10/19 01:38:07;;;;;;;12.32;8.23;;;14.40;91.40;;;;;;5073161;28;20025;-78
2021/10/19 01:40:33;;;;;;;11.30;7.55;;;14.50;91.50;;;;;;5057070;28;20411;-78
2021/10/19 01:42:59;;;;;;;14.60;7.88;;;14.50;91.50;;;;;;5056617;28;20028;-78
2021/10/19 01:45:25;;;;;;;14.55;8.18;;;14.50;91.60;;;;;;5074854;28;20032;-79
2021/10/19 01:47:50;;;;;;;11.63;8.23;;;14.50;91.70;;;;;;5073054;28;20028;-77
2021/10/19 01:50:17;;;;;;;13.00;8.93;;;14.50;91.70;;;;;;5073238;28;20043;-77
2021/10/19 01:52:44;;;;;;;13.60;8.02;;;14.50;91.70;;;;;;5073268;28;20028;-78
2021/10/19 01:55:10;;;;;;;11.88;7.55;;;14.50;91.90;;;;;;5073065;28;20542;-76
2021/10/19 01:57:36;;;;;;;12.45;8.75;;;14.60;91.90;;;;;;5056735;28;20036;-78
2021/10/19 02:00:07;;;;;;;13.18;7.90;;;14.50;91.90;;;;;;5056277;28;20081;-77
2021/10/19 02:02:33;;;;;;;11.85;7.40;;;14.60;91.90;;;;;;5072802;28;20565;-80
2021/10/19 02:04:59;;;;;;;13.90;7.55;;;14.60;92.00;;;;;;5039423;28;20180;-78
2021/10/19 02:07:25;;;;;;;13.80;8.20;;;14.60;92.00;;;;;;5072709;28;20036;-76
2021/10/19 02:09:50;;;;;;;11.50;7.80;;;14.60;92.00;;;;;;5072674;28;20020;-78
2021/10/19 02:12:16;;;;;;;13.88;8.50;;;14.60;92.20;;;;;;5040353;28;20503;-76
2021/10/19 02:14:42;;;;;;;11.20;7.43;;;14.60;92.10;;;;;;5074434;28;20040;-76
2021/10/19 02:17:08;;;;;;;11.63;7.47;;;14.60;92.10;;;;;;5075833;28;20028;-77
2021/10/19 02:19:34;;;;;;;14.40;7.65;;;14.70;92.30;;;;;;5074881;28;20044;-77
2021/10/19 02:21:59;;;;;;;11.48;7.57;;;14.70;92.50;;;;;;5079865;28;20052;-78
2021/10/19 02:24:25;;;;;;;12.10;7.97;;;14.70;92.40;;;;;;5059893;28;20028;-77
2021/10/19 02:26:51;;;;;;;12.02;7.43;;;14.70;92.30;;;;;;5074678;28;20111;-78
2021/10/19 02:29:18;;;;;;;12.43;7.85;;;14.70;92.40;;;;;;5057695;28;20033;-77
2021/10/19 02:31:44;;;;;;;11.88;7.40;;;14.70;92.40;;;;;;5075465;28;20067;-77
2021/10/19 02:34:10;;;;;;;10.95;7.45;;;14.70;92.40;;;;;;5056943;28;20043;-77
2021/10/19 02:36:36;;;;;;;11.68;7.72;;;14.70;92.50;;;;;;5073011;28;20032;-78
2021/10/19 02:39:05;;;;;;;11.52;7.40;;;14.80;92.60;;;;;;5064899;28;20029;-77
2021/10/19 02:41:30;;;;;;;12.38;7.65;;;14.80;92.60;;;;;;5063285;28;20029;-77
2021/10/19 02:43:56;;;;;;;10.65;7.18;;;14.70;92.60;;;;;;5068840;28;20108;-76
2021/10/19 02:46:24;;;;;;;12.68;7.72;;;14.80;92.60;;;;;;5068278;28;20021;-77
2021/10/19 02:48:50;;;;;;;11.70;6.70;;;14.80;92.80;;;;;;5052396;28;20060;-78
2021/10/19 02:51:16;;;;;;;10.73;7.40;;;14.80;92.80;;;;;;5053505;28;20033;-77
2021/10/19 02:53:42;;;;;;;12.13;7.53;;;14.80;92.90;;;;;;5069293;28;20040;-76
2021/10/19 02:56:08;;;;;;;10.82;7.28;;;14.80;93.10;;;;;;5069112;28;20469;-79
2021/10/19 02:58:33;;;;;;;11.73;7.00;;;14.80;93.10;;;;;;5051967;28;20053;-77
2021/10/19 03:00:59;;;;;;;10.93;6.80;;;14.80;93.20;;;;;;5052342;28;20514;-78
2021/10/19 03:03:24;;;;;;;10.95;6.93;;;14.80;93.20;;;;;;5068989;28;20414;-77
2021/10/19 03:05:50;;;;;;;12.85;7.88;;;14.80;93.30;;;;;;5053567;28;20032;-79
2021/10/19 03:08:16;;;;;;;11.75;7.28;;;14.80;93.60;;;;;;5052680;28;20047;-78
2021/10/19 03:10:41;;;;;;;10.60;7.03;;;14.90;93.70;;;;;;5052500;28;20115;-78
2021/10/19 03:13:07;;;;;;;10.98;7.60;;;14.80;93.70;;;;;;5052979;28;20172;-79
2021/10/19 03:15:33;;;;;;;10.93;7.30;;;14.90;94.00;;;;;;5052530;28;20037;-78
2021/10/19 03:17:58;;;;;;;13.13;7.88;;;14.80;93.90;;;;;;5052284;28;20036;-78
2021/10/19 03:20:24;;;;;;;13.07;7.13;;;14.90;94.00;;;;;;5052065;28;20033;-76
2021/10/19 03:22:50;;;;;;;10.88;6.60;;;14.90;94.30;;;;;;5069530;28;20030;-80
2021/10/19 03:25:15;;;;;;;13.70;7.47;;;14.90;94.20;;;;;;5053556;28;20021;-79
2021/10/19 03:27:41;;;;;;;11.70;8.07;;;14.90;94.40;;;;;;5051723;28;20021;-78
2021/10/19 03:30:07;;;;;;;12.27;7.90;;;14.90;94.40;;;;;;5052028;28;20536;-79
2021/10/19 03:32:32;;;;;;;10.80;6.88;;;14.90;94.60;;;;;;5051922;28;20059;-76
2021/10/19 03:34:58;;;;;;;10.13;6.88;;;14.90;94.60;;;;;;5068704;28;20474;-78
2021/10/19 03:37:25;;;;;;;13.45;7.97;;;14.90;94.90;;;;;;5053211;28;20477;-80
2021/10/19 03:39:51;;;;;;;10.70;7.15;;;14.90;94.90;;;;;;5068505;28;20033;-79
2021/10/19 03:42:16;;;;;;;13.82;9.02;;;14.90;95.00;;;;;;5053390;28;20025;-79
2021/10/19 03:44:42;;;;;;;11.85;7.25;;;14.90;94.90;;;;;;5051759;28;20100;-79
2021/10/19 03:47:08;;;;;;;12.15;8.60;;;14.90;95.30;;;;;;5068571;28;20021;-79
2021/10/19 03:49:33;;;;;;;12.50;7.65;;;14.90;95.60;;;;;;5054037;28;20036;-78
2021/10/19 03:51:59;;;;;;;14.90;9.18;;;14.90;95.50;;;;;;5055485;28;20122;-79
2021/10/19 03:54:25;;;;;;;13.02;7.55;;;14.90;95.70;;;;;;5071812;28;20062;-77
2021/10/19 03:56:50;;;;;;;11.35;7.00;;;14.90;95.80;;;;;;5056266;28;20028;-79
2021/10/19 03:59:16;;;;;;;14.80;8.88;;;14.90;95.60;;;;;;5075306;28;20025;-79
2021/10/19 04:01:41;;;;;;;11.27;7.80;;;14.90;95.70;;;;;;5075363;28;20104;-78
2021/10/19 04:04:07;;;;;;;11.95;7.30;;;14.80;95.70;;;;;;5042477;28;20342;-80
2021/10/19 04:06:33;;;;;;;12.55;8.48;;;14.90;95.90;;;;;;5076634;28;20048;-78
2021/10/19 04:08:59;;;;;;;9.73;6.63;;;14.90;95.90;;;;;;5058727;28;20029;-79
2021/10/19 04:11:24;;;;;;;12.00;8.27;;;14.90;96.10;;;;;;5076875;28;20032;-77
2021/10/19 04:13:50;;;;;;;12.35;7.78;;;14.80;96.10;;;;;;5075423;28;20035;-79
2021/10/19 04:16:16;;;;;;;12.35;7.68;;;14.90;96.20;;;;;;5075279;28;20108;-78
2021/10/19 04:18:42;;;;;;;11.02;7.50;;;14.90;96.10;;;;;;5074868;28;20060;-80
2021/10/19 04:21:07;;;;;;;12.02;7.95;;;14.90;96.20;;;;;;5076846;28;20021;-78
2021/10/19 04:23:33;;;;;;;13.07;8.32;;;14.90;96.20;;;;;;5058326;28;20039;-76
2021/10/19 04:25:59;;;;;;;11.43;7.53;;;14.90;96.40;;;;;;5075078;28;20027;-78
2021/10/19 04:28:24;;;;;;;13.52;7.70;;;14.90;96.50;;;;;;5074861;28;20115;-77
2021/10/19 04:30:51;;;;;;;12.27;7.68;;;14.90;96.40;;;;;;5074160;28;20052;-76
2021/10/19 04:33:17;;;;;;;10.82;7.60;;;14.90;96.50;;;;;;5075801;28;20107;-77
2021/10/19 04:35:43;;;;;;;14.23;9.40;;;14.90;96.40;;;;;;5070955;28;20052;-77
2021/10/19 04:38:09;;;;;;;12.65;8.65;;;14.90;96.70;;;;;;5057698;28;20162;-77
2021/10/19 04:40:35;;;;;;;11.27;7.43;;;14.90;96.60;;;;;;5074427;28;20021;-79
2021/10/19 04:43:00;;;;;;;12.70;8.18;;;14.90;96.60;;;;;;5068029;28;20096;-79
2021/10/19 04:45:27;;;;;;;11.60;8.38;;;14.90;96.70;;;;;;5026725;28;20062;-78
2021/10/19 04:47:56;;;;;;;14.00;9.27;;;14.90;96.70;;;;;;5067548;28;20067;-80
2021/10/19 04:50:23;;;;;;;13.38;9.75;;;14.90;96.80;;;;;;5057736;28;20498;-80
2021/10/19 04:52:48;;;;;;;14.15;8.43;;;14.90;97.10;;;;;;5057946;28;20499;-78
2021/10/19 04:55:14;;;;;;;13.57;8.88;;;14.90;97.00;;;;;;5069007;28;20025;-79
2021/10/19 04:57:40;;;;;;;11.32;8.23;;;14.90;96.90;;;;;;5047143;28;20024;-79
2021/10/19 05:00:06;;;;;;;13.00;8.90;;;14.90;97.00;;;;;;5027419;28;20016;-79
2021/10/19 05:02:32;;;;;;;17.48;9.93;;;14.90;97.40;;;;;;5073953;28;20017;-80
2021/10/19 05:04:58;;;;;;;12.75;8.93;;;14.90;97.10;;;;;;5040906;28;20346;-79
2021/10/19 05:07:24;;;;;;;14.93;9.20;;;14.90;97.20;;;;;;5073804;28;20020;-81
2021/10/19 05:09:50;;;;;;;13.95;8.48;;;14.90;97.10;;;;;;5056772;28;20039;-79
2021/10/19 05:12:15;;;;;;;13.15;8.95;;;14.80;97.20;;;;;;5074025;28;20044;-79
2021/10/19 05:14:41;;;;;;;13.90;8.90;;;14.80;97.30;;;;;;5052909;28;20388;-81
2021/10/19 05:17:06;;;;;;;12.18;9.05;;;14.90;97.50;;;;;;5037211;28;20029;-78
2021/10/19 05:19:32;;;;;;;11.73;9.05;;;14.90;97.30;;;;;;5037506;28;20455;-79
2021/10/19 05:21:58;;;;;;;15.30;9.18;;;14.80;97.30;;;;;;5053879;28;20025;-83
2021/10/19 05:24:24;;;;;;;13.55;9.88;;;14.80;97.30;;;;;;5054142;28;20108;-78
2021/10/19 05:26:50;;;;;;;15.73;9.57;;;14.80;97.30;;;;;;5054226;28;20021;-78
2021/10/19 05:29:15;;;;;;;12.27;8.63;;;14.80;97.40;;;;;;5055143;28;20021;-79
2021/10/19 05:31:41;;;;;;;13.70;9.40;;;14.80;97.30;;;;;;5020654;28;20025;-80
2021/10/19 05:34:07;;;;;;;14.45;10.38;;;14.80;97.40;;;;;;5053542;28;20033;-80
2021/10/19 05:36:32;;;;;;;14.02;9.65;;;14.80;97.50;;;;;;5053613;28;20346;-78
2021/10/19 05:38:58;;;;;;;14.05;10.13;;;14.80;97.60;;;;;;5053504;28;20040;-79
2021/10/19 05:41:24;;;;;;;11.88;9.60;;;14.80;97.60;;;;;;5054635;28;20025;-79
2021/10/19 05:43:49;;;;;;;12.88;9.35;;;14.80;97.50;;;;;;5034003;28;20039;-78
2021/10/19 05:46:15;;;;;;;13.00;9.50;;;14.80;97.60;;;;;;5073163;28;20047;-81
2021/10/19 05:48:41;;;;;;;14.00;9.23;;;14.80;97.90;;;;;;5062053;28;20102;-79
2021/10/19 05:51:06;;;;;;;12.02;9.18;;;14.80;97.60;;;;;;5073313;28;20033;-79
2021/10/19 05:53:32;;;;;;;12.32;8.95;;;14.80;97.70;;;;;;5073606;28;20039;-78
2021/10/19 05:55:58;;;;;;;13.05;10.02;;;14.80;97.70;;;;;;5053003;28;20568;-78
2021/10/19 05:58:23;;;;;;;13.27;9.25;;;14.80;97.60;;;;;;5052871;28;20547;-79
2021/10/19 06:00:50;;;;;;;12.40;9.13;;;14.80;97.70;;;;;;5052965;28;20035;-77
2021/10/19 06:03:16;;;;;;;12.23;9.15;;;14.80;97.70;;;;;;5052806;28;20029;-79
2021/10/19 06:05:42;;;;;;;12.32;8.70;;;14.80;97.70;;;;;;5054315;28;20021;-81
2021/10/19 06:08:07;;;;;;;10.43;8.30;;;14.90;97.70;;;;;;5053195;28;20504;-82
2021/10/19 06:10:33;;;;;;;11.13;8.30;;;14.80;97.70;;;;;;5052812;28;20029;-80
2021/10/19 06:12:59;;;;;;;10.40;8.25;;;14.80;97.80;;;;;;5052782;28;20052;-78
2021/10/19 06:15:25;;;;;;;10.90;8.07;;;14.90;97.80;;;;;;5035764;28;20385;-77
2021/10/19 06:17:51;;;;;;;12.85;9.38;;;14.80;97.80;;;;;;5052286;28;20124;-77
2021/10/19 06:20:17;;;;;;;11.68;8.05;;;14.90;97.80;;;;;;5052018;28;20170;-77
2021/10/19 06:22:43;;;;;;;11.40;9.20;;;14.90;97.80;;;;;;5052023;28;20494;-77
2021/10/19 06:25:09;;;;;;;10.13;7.57;;;14.80;97.90;;;;;;5052118;28;20036;-77
2021/10/19 06:27:35;;;;;;;11.75;8.70;;;14.90;97.90;;;;;;5053901;28;20457;-78
2021/10/19 06:30:03;;;;;;;13.75;8.55;;;14.90;97.90;;;;;;5052132;28;20061;-78
2021/10/19 06:32:28;;;;;;;14.20;9.13;;;14.90;97.90;;;;;;5053659;28;20112;-78
2021/10/19 06:34:54;;;;;;;13.07;9.70;;;14.90;98.00;;;;;;5053501;28;20118;-77
2021/10/19 06:37:20;;;;;;;11.65;8.68;;;14.90;98.10;;;;;;5035618;28;20029;-78
2021/10/19 06:39:45;;;;;;;12.30;9.10;;;14.90;98.10;;;;;;5052174;28;20033;-77
2021/10/19 06:42:11;;;;;;;11.68;8.80;;;14.90;98.10;;;;;;5035910;28;20025;-78
2021/10/19 06:44:37;;;;;;;12.57;8.93;;;14.90;98.20;;;;;;5052437;28;20036;-78
2021/10/19 06:47:02;;;;;;;11.90;8.75;;;14.90;98.10;;;;;;5035769;28;20035;-85
2021/10/19 06:49:28;;;;;;;12.35;8.50;;;14.90;98.10;;;;;;5052328;28;20047;-82
2021/10/19 06:51:53;;;;;;;11.93;9.10;;;15.00;98.20;;;;;;5052392;28;20030;-81
2021/10/19 06:54:19;;;;;;;12.25;8.65;;;15.00;98.30;;;;;;5052096;28;20029;-82
2021/10/19 06:56:45;;;;;;;10.20;7.85;;;14.90;98.30;;;;;;5052378;28;20381;-81
2021/10/19 06:59:11;;;;;;;9.45;7.43;;;15.00;98.30;;;;;;5052258;28;20029;-82
2021/10/19 07:01:36;;;;;;;16.60;8.95;;;15.00;98.30;;;;;;5053431;28;20024;-81
2021/10/19 07:04:02;;;;;;;10.20;8.07;;;15.00;98.40;;;;;;5035693;28;20057;-80
2021/10/19 07:06:28;;;;;;;9.60;7.68;;;15.00;98.40;;;;;;5052048;28;20021;-81
2021/10/19 07:08:54;;;;;;;10.80;8.07;;;15.00;98.40;;;;;;5035487;28;20485;-82
2021/10/19 07:11:25;;;;;;;10.82;8.27;;;15.00;98.40;;;;;;5051930;28;20025;-82
2021/10/19 07:13:51;;;;;;;10.50;8.27;;;15.10;98.50;;;;;;5036109;28;20041;-81
2021/10/19 07:16:17;;;;;;;10.43;7.80;;;15.10;98.50;;;;;;5035537;28;20037;-82
2021/10/19 07:18:42;;;;;;;8.98;7.20;;;15.10;98.60;;;;;;5053256;28;20037;-82
2021/10/19 07:21:08;;;;;;;11.98;8.85;;;15.10;98.60;;;;;;5051978;28;20083;-80
2021/10/19 07:23:36;;;;;;;11.35;7.40;;;15.10;98.70;;;;;;5052612;28;20223;-81
2021/10/19 07:26:02;;;;;;;10.45;8.32;;;15.10;98.70;;;;;;5052144;28;20389;-81
2021/10/19 07:28:28;;;;;;;10.65;7.90;;;15.20;98.80;;;;;;5051798;28;20029;-83
2021/10/19 07:30:53;;;;;;;11.50;8.73;;;15.20;98.70;;;;;;5051702;28;20443;-81
2021/10/19 07:33:19;;;;;;;11.23;8.68;;;15.20;98.80;;;;;;5039064;28;20029;-81
2021/10/19 07:35:45;;;;;;;10.65;8.88;;;15.20;98.80;;;;;;5057061;28;20060;-79
2021/10/19 07:38:12;;;;;;;11.38;8.75;;;15.20;98.80;;;;;;5055924;28;20473;-84
2021/10/19 07:40:37;;;;;;;9.32;7.35;;;15.30;98.90;;;;;;5039000;28;20131;-80
2021/10/19 07:43:03;;;;;;;10.38;8.20;;;15.30;99.00;;;;;;5055618;28;20057;-78
2021/10/19 07:45:29;;;;;;;12.45;8.98;;;15.30;99.00;;;;;;5055842;28;20032;-80
2021/10/19 07:47:59;;;;;;;11.57;9.15;;;15.30;98.90;;;;;;5056719;28;20021;-79
2021/10/19 07:50:24;;;;;;;12.20;9.10;;;15.30;99.00;;;;;;5056937;28;20029;-78
2021/10/19 07:52:52;;;;;;;11.20;8.35;;;15.40;99.10;;;;;;5057923;28;20025;-79
2021/10/19 07:55:18;;;;;;;12.32;8.98;;;15.40;99.10;;;;;;5075300;28;20028;-80
2021/10/19 07:57:49;;;;;;;13.57;8.55;;;15.40;99.10;;;;;;5058822;28;20025;-79
2021/10/19 08:00:17;;;;;;;12.15;9.30;;;15.40;99.10;;;;;;5076441;28;20025;-80
2021/10/19 08:02:42;;;;;;;9.77;8.38;;;15.40;99.10;;;;;;5075595;28;20100;-79
2021/10/19 08:05:13;;;;;;;11.48;8.73;;;15.50;99.10;;;;;;5075208;28;20048;-79
2021/10/19 08:07:43;;;;;;;10.55;8.50;;;15.50;99.10;;;;;;5076566;28;20396;-83
2021/10/19 08:10:10;;;;;;;10.48;9.10;;;15.50;99.20;;;;;;5076704;28;20024;-81
2021/10/19 08:12:36;;;;;;;9.93;8.15;;;15.50;99.40;;;;;;5075712;28;20045;-80
2021/10/19 08:15:05;;;;;;;10.93;8.98;;;15.50;99.30;;;;;;5075222;28;20078;-79
2021/10/19 08:17:31;;;;;;;10.63;9.02;;;15.60;99.50;;;;;;5075693;28;20073;-84
2021/10/19 08:20:00;;;;;;;11.63;9.07;;;15.60;99.60;;;;;;5074704;28;20042;-79
2021/10/19 08:22:31;;;;;;;11.95;9.77;;;15.60;99.50;;;;;;5075041;28;20025;-80
2021/10/19 08:24:57;;;;;;;12.45;10.05;;;15.60;99.50;;;;;;5074908;28;20025;-80
2021/10/19 08:27:24;;;;;;;13.07;10.18;;;15.70;99.70;;;;;;5074890;28;20031;-79
2021/10/19 08:29:50;;;;;;;14.88;9.52;;;15.70;99.80;;;;;;5058371;28;20086;-78
2021/10/19 08:32:15;;;;;;;14.02;9.80;;;15.70;99.80;;;;;;5076052;28;20076;-82
2021/10/19 08:34:41;;;;;;;11.95;9.65;;;15.70;99.80;;;;;;5074842;28;20024;-78
2021/10/19 08:37:07;;;;;;;11.35;9.82;;;15.70;99.90;;;;;;5076097;28;20526;-84
2021/10/19 08:39:32;;;;;;;10.98;8.82;;;15.70;99.90;;;;;;5075849;28;20082;-81
2021/10/19 08:41:59;;;;;;;11.48;9.50;;;15.80;99.90;;;;;;5076035;28;20473;-80
2021/10/19 08:44:24;;;;;;;11.32;9.50;;;15.80;99.90;;;;;;5073212;28;20029;-76
2021/10/19 08:46:50;;;;;;;12.05;8.98;;;15.80;99.90;;;;;;5041276;28;20035;-79
2021/10/19 08:49:16;;;;;;;10.88;7.95;;;15.90;99.90;;;;;;5041252;28;20426;-79
2021/10/19 08:51:42;;;;;;;9.60;8.05;;;15.90;99.90;;;;;;5041225;28;20115;-79
2021/10/19 08:54:08;;;;;;;11.23;8.73;;;15.90;99.90;;;;;;5057681;28;20381;-79
2021/10/19 08:56:38;;;;;;;10.65;8.88;;;16.00;99.90;;;;;;5057777;28;20036;-77
2021/10/19 08:59:04;;;;;;;9.60;8.05;;;16.00;99.90;;;;;;5074210;28;20103;-77
2021/10/19 09:01:34;;;;;;;10.27;8.77;;;16.00;99.90;;;;;;5074448;28;20119;-78
2021/10/19 09:04:04;;;;;;;10.10;7.78;;;16.10;99.90;;;;;;5074266;28;20028;-78
2021/10/19 09:06:32;;;;;;;11.07;7.00;;;16.10;99.90;;;;;;5074231;28;20017;-79
2021/10/19 09:09:05;;;;;;;9.07;7.20;;;16.10;99.90;;;;;;5057817;28;20618;-79
2021/10/19 09:11:42;;;;;;;10.02;8.43;;;16.10;99.90;;;;;;5073768;28;20032;-78
2021/10/19 09:14:09;;;;;;;8.45;7.15;;;16.20;99.90;;;;;;5074175;28;20119;-81
2021/10/19 09:16:42;;;;;;;7.82;6.55;;;16.20;99.90;;;;;;5074351;28;20400;-84
2021/10/19 09:19:09;;;;;;;8.65;6.20;;;16.20;99.90;;;;;;5074919;28;20158;-80
2021/10/19 09:21:36;;;;;;;9.45;6.88;;;16.20;99.90;;;;;;5075200;28;20028;-84
2021/10/19 09:24:25;;;;;;;8.23;6.38;;;16.30;99.90;;;;;;5057109;28;20021;-83
2021/10/19 09:26:52;;;;;;;9.25;6.32;;;16.30;99.90;;;;;;5074949;28;20469;-78
2021/10/19 09:29:18;;;;;;;9.73;6.13;;;16.30;99.90;;;;;;5073730;28;20491;-80
2021/10/19 09:31:44;;;;;;;8.13;5.05;;;16.30;99.90;;;;;;5074827;28;20034;-79
2021/10/19 09:34:13;;;;;;;7.35;5.63;;;16.30;99.90;;;;;;5074858;28;20111;-82
2021/10/19 09:36:39;;;;;;;8.88;6.28;;;16.30;99.90;;;;;;5057174;28;20024;-81
2021/10/19 09:39:05;;;;;;;6.35;5.13;;;16.30;99.90;;;;;;5073373;28;20049;-79
2021/10/19 09:41:44;;;;;;;7.32;4.95;;;16.40;99.90;;;;;;5056970;28;20085;-79
2021/10/19 09:44:16;;;;;;;5.95;4.38;;;16.40;99.90;;;;;;5074733;28;20055;-80
2021/10/19 09:46:42;;;;;;;5.93;4.50;;;16.40;99.90;;;;;;5074733;28;20024;-80
2021/10/19 09:49:14;;;;;;;6.80;5.00;;;16.40;99.90;;;;;;5056855;28;20039;-80
2021/10/19 09:51:39;;;;;;;5.63;4.35;;;16.40;99.90;;;;;;5057125;28;20024;-82
2021/10/19 09:54:09;;;;;;;5.70;4.38;;;16.50;99.90;;;;;;5072516;28;20027;-79
2021/10/19 09:56:39;;;;;;;5.80;4.18;;;16.50;99.90;;;;;;5074392;28;20491;-83
2021/10/19 09:59:06;;;;;;;5.18;3.80;;;16.50;99.90;;;;;;5056219;28;20427;-82
2021/10/19 10:01:33;;;;;;;5.20;3.92;;;16.50;99.90;;;;;;5074574;28;20029;-81
2021/10/19 10:04:00;;;;;;;4.65;3.25;;;16.60;99.90;;;;;;5074149;28;20032;-80
2021/10/19 10:06:27;;;;;;;4.03;3.20;;;16.60;99.90;;;;;;5072890;28;20388;-80
2021/10/19 10:08:53;;;;;;;3.88;3.15;;;16.60;99.90;;;;;;5056364;28;20051;-80
2021/10/19 10:11:21;;;;;;;4.72;2.92;;;16.60;99.90;;;;;;5056572;28;20033;-82
2021/10/19 10:14:00;;;;;;;4.13;3.05;;;16.60;99.90;;;;;;5072686;28;20048;-85
2021/10/19 10:16:27;;;;;;;3.80;2.47;;;16.60;99.90;;;;;;5056737;28;20029;-80
2021/10/19 10:18:53;;;;;;;5.15;3.33;;;16.70;99.90;;;;;;5055782;28;20120;-81
2021/10/19 10:21:23;;;;;;;4.90;3.50;;;16.70;99.90;;;;;;5072680;28;20028;-80
2021/10/19 10:24:05;;;;;;;4.97;3.15;;;16.70;99.90;;;;;;5072910;28;20487;-80
2021/10/19 10:26:32;;;;;;;4.68;3.47;;;16.70;99.90;;;;;;5072633;28;20016;-81
2021/10/19 10:29:11;;;;;;;4.60;3.45;;;16.70;99.90;;;;;;5073905;28;20017;-84
2021/10/19 10:31:45;;;;;;;5.43;3.60;;;16.80;99.90;;;;;;5076429;28;20142;-81
2021/10/19 10:34:12;;;;;;;5.93;4.45;;;16.80;99.90;;;;;;5076991;28;20107;-79
2021/10/19 10:36:42;;;;;;;6.25;4.63;;;16.80;99.90;;;;;;5042439;28;20021;-80
2021/10/19 10:39:08;;;;;;;9.38;5.43;;;16.90;99.90;;;;;;5075976;28;20424;-82
2021/10/19 10:41:38;;;;;;;6.80;4.95;;;16.90;99.90;;;;;;5074855;28;20063;-81
2021/10/19 10:44:05;;;;;;;8.68;5.75;;;16.90;99.90;;;;;;5073666;28;20020;-85
2021/10/19 10:46:30;;;;;;;8.35;5.65;;;17.00;99.90;;;;;;5075029;28;20035;-80
2021/10/19 10:48:56;;;;;;;10.63;6.00;;;17.10;99.90;;;;;;5073484;28;20029;-82
2021/10/19 10:51:33;;;;;;;8.32;5.47;;;17.10;99.90;;;;;;5056405;28;20024;-82
2021/10/19 10:53:59;;;;;;;7.40;5.57;;;17.10;99.90;;;;;;5073731;28;20444;-82
2021/10/19 10:56:26;;;;;;;7.88;5.28;;;17.10;99.90;;;;;;5072198;28;20166;-82
2021/10/19 10:58:52;;;;;;;9.00;5.50;;;17.20;99.90;;;;;;5055310;28;20109;-83
2021/10/19 11:01:28;;;;;;;9.15;6.30;;;17.20;99.90;;;;;;5072571;28;20025;-80
2021/10/19 11:04:05;;;;;;;9.23;5.78;;;17.30;99.90;;;;;;5072092;28;20493;-82
2021/10/19 11:06:31;;;;;;;7.65;5.10;;;17.20;99.90;;;;;;5072940;28;20101;-82
2021/10/19 11:09:19;;;;;;;8.63;5.18;;;17.30;99.90;;;;;;5071987;28;20033;-81
2021/10/19 11:11:47;;;;;;;10.23;6.43;;;17.30;99.90;;;;;;5073091;28;20040;-83
2021/10/19 11:14:20;;;;;;;9.95;6.25;;;17.30;99.90;;;;;;5055251;28;20048;-82
2021/10/19 11:16:53;;;;;;;9.75;6.18;;;17.40;99.90;;;;;;5072137;28;20074;-80
2021/10/19 11:19:33;;;;;;;11.03;7.10;;;17.40;99.90;;;;;;5073150;28;20032;-80
2021/10/19 11:22:05;;;;;;;10.00;6.90;;;17.50;99.90;;;;;;5071887;28;20275;-81
2021/10/19 11:24:33;;;;;;;9.85;6.28;;;17.50;99.90;;;;;;5073349;28;20029;-83
2021/10/19 11:27:02;;;;;;;10.32;6.43;;;17.60;99.90;;;;;;5072358;28;20506;-80
2021/10/19 11:29:30;;;;;;;10.52;6.22;;;17.70;99.90;;;;;;5073177;28;20025;-80
2021/10/19 11:31:58;;;;;;;8.95;6.70;;;17.70;99.90;;;;;;5071814;28;20043;-82
2021/10/19 11:34:24;;;;;;;8.95;6.55;;;17.70;99.90;;;;;;5073246;28;20028;-84
2021/10/19 11:36:50;;;;;;;11.23;7.82;;;17.80;99.90;;;;;;5055455;28;20437;-81
2021/10/19 11:39:15;;;;;;;9.27;6.55;;;17.80;99.90;;;;;;5038581;28;20025;-81
2021/10/19 11:41:56;;;;;;;13.27;8.05;;;17.80;99.90;;;;;;5071848;28;20023;-81
2021/10/19 11:44:22;;;;;;;11.52;7.95;;;17.80;99.90;;;;;;5073089;28;20496;-80
2021/10/19 11:46:48;;;;;;;11.85;8.20;;;17.80;99.90;;;;;;5071890;28;20033;-82
2021/10/19 11:49:18;;;;;;;14.02;9.32;;;17.80;99.90;;;;;;5071967;28;20365;-81
2021/10/19 11:51:46;;;;;;;11.48;7.90;;;17.80;99.90;;;;;;5055111;28;20029;-85
2021/10/19 11:54:14;;;;;;;11.95;9.25;;;17.80;99.90;;;;;;5055320;28;20032;-84
2021/10/19 11:56:40;;;;;;;11.25;8.13;;;17.90;99.90;;;;;;5071577;28;20479;-84
2021/10/19 11:59:08;;;;;;;13.65;9.88;;;17.90;99.90;;;;;;5054816;28;20495;-81
2021/10/19 12:01:42;;;;;;;15.07;9.73;;;17.90;99.90;;;;;;5073110;28;20020;-80
2021/10/19 12:04:12;;;;;;;14.02;10.10;;;17.90;99.90;;;;;;5073586;28;20024;-79
2021/10/19 12:06:44;;;;;;;14.40;10.30;;;17.90;99.90;;;;;;5073451;28;20062;-79
2021/10/19 12:09:21;;;;;;;11.65;9.05;;;17.90;99.90;;;;;;5071607;28;20085;-84
2021/10/19 12:11:56;;;;;;;12.98;8.85;;;17.90;99.90;;;;;;5071437;28;20068;-83
2021/10/19 12:14:34;;;;;;;12.80;9.40;;;18.00;99.90;;;;;;5072758;28;20029;-80
2021/10/19 12:17:04;;;;;;;15.40;10.02;;;17.90;99.90;;;;;;5071414;28;20500;-81
2021/10/19 12:19:31;;;;;;;13.57;9.93;;;18.00;99.90;;;;;;5076408;28;20473;-79
2021/10/19 12:22:00;;;;;;;12.38;8.60;;;17.90;99.90;;;;;;5074966;28;20029;-81
2021/10/19 12:24:26;;;;;;;12.32;9.27;;;17.90;99.90;;;;;;5076541;28;20020;-80
2021/10/19 12:27:06;;;;;;;15.23;10.93;;;17.80;99.90;;;;;;5076137;28;20488;-84
2021/10/19 12:29:34;;;;;;;13.85;9.88;;;17.80;99.90;;;;;;5076273;28;20028;-80
2021/10/19 12:32:01;;;;;;;13.73;9.63;;;17.80;99.90;;;;;;5058158;28;20033;-79
2021/10/19 12:34:28;;;;;;;14.73;9.88;;;17.80;99.90;;;;;;5074728;28;20032;-85
2021/10/19 12:36:59;;;;;;;15.88;11.15;;;17.80;99.90;;;;;;5076203;28;20029;-81